sensor_id;sensor_type;location;lat;lon;timestamp;pressure;altitude;pressure_sealevel;temperature;humidity
38303;BME280;24103;42.454;27.400;2023-04-25T00:02:25;100101.13;;;11.90;100.00
38303;BME280;24103;42.454;27.400;2023-04-25T00:04:51;100091.59;;;12.00;100.00
38303;BME280;24103;42.454;27.400;2023-04-25T00:07:17;100097.09;;;12.10;100.00
38303;BME280;24103;42.454;27.400;2023-04-25T00:09:42;100096.88;;;12.13;100.00
38303;BME280;24103;42.454;27.400;2023-04-25T00:12:08;100088.22;;;11.85;100.00
38303;BME280;24103;42.454;27.400;2023-04-25T00:14:34;100083.97;;;11.95;100.00
38303;BME280;24103;42.454;27.400;2023-04-25T00:17:00;100087.25;;;11.99;100.00
38303;BME280;24103;42.454;27.400;2023-04-25T00:19:26;100084.72;;;11.85;100.00
38303;BME280;24103;42.454;27.400;2023-04-25T00:21:54;100083.97;;;11.95;100.00
38303;BME280;24103;42.454;27.400;2023-04-25T00:24:20;100083.03;;;11.96;100.00
38303;BME280;24103;42.454;27.400;2023-04-25T00:26:46;100070.00;;;11.93;100.00
38303;BME280;24103;42.454;27.400;2023-04-25T00:29:11;100073.06;;;11.87;100.00
38303;BME280;24103;42.454;27.400;2023-04-25T00:31:37;100070.09;;;11.79;100.00
38303;BME280;24103;42.454;27.400;2023-04-25T00:34:02;100078.34;;;11.74;100.00
38303;BME280;24103;42.454;27.400;2023-04-25T00:36:28;100071.41;;;11.73;100.00
38303;BME280;24103;42.454;27.400;2023-04-25T00:38:53;100060.41;;;11.54;100.00
38303;BME280;24103;42.454;27.400;2023-04-25T00:41:20;100060.19;;;11.70;100.00
38303;BME280;24103;42.454;27.400;2023-04-25T00:43:46;100065.13;;;11.74;100.00
38303;BME280;24103;42.454;27.400;2023-04-25T00:46:12;100059.94;;;11.73;100.00
38303;BME280;24103;42.454;27.400;2023-04-25T00:48:38;100056.88;;;11.66;100.00
38303;BME280;24103;42.454;27.400;2023-04-25T00:51:03;100067.78;;;11.74;100.00
38303;BME280;24103;42.454;27.400;2023-04-25T00:53:30;100067.16;;;11.71;100.00
38303;BME280;24103;42.454;27.400;2023-04-25T00:55:57;100062.47;;;11.74;100.00
38303;BME280;24103;42.454;27.400;2023-04-25T00:58:22;100056.03;;;11.66;100.00
38303;BME280;24103;42.454;27.400;2023-04-25T01:00:49;100050.44;;;11.57;100.00
38303;BME280;24103;42.454;27.400;2023-04-25T01:03:16;100051.69;;;11.65;100.00
38303;BME280;24103;42.454;27.400;2023-04-25T01:05:43;100045.16;;;11.57;100.00
38303;BME280;24103;42.454;27.400;2023-04-25T01:08:08;100045.03;;;11.46;100.00
38303;BME280;24103;42.454;27.400;2023-04-25T01:10:34;100047.47;;;11.36;100.00
38303;BME280;24103;42.454;27.400;2023-04-25T01:13:00;100045.16;;;11.32;100.00
38303;BME280;24103;42.454;27.400;2023-04-25T01:15:25;100046.97;;;11.31;100.00
38303;BME280;24103;42.454;27.400;2023-04-25T01:17:51;100042.31;;;11.22;100.00
38303;BME280;24103;42.454;27.400;2023-04-25T01:20:20;100044.84;;;11.23;100.00
38303;BME280;24103;42.454;27.400;2023-04-25T01:22:46;100047.59;;;11.09;100.00
38303;BME280;24103;42.454;27.400;2023-04-25T01:25:12;100042.91;;;11.00;100.00
38303;BME280;24103;42.454;27.400;2023-04-25T01:27:38;100036.59;;;11.02;100.00
38303;BME280;24103;42.454;27.400;2023-04-25T01:30:04;100037.84;;;10.84;100.00
38303;BME280;24103;42.454;27.400;2023-04-25T01:32:30;100034.06;;;10.61;100.00
38303;BME280;24103;42.454;27.400;2023-04-25T01:35:04;100024.75;;;10.55;100.00
38303;BME280;24103;42.454;27.400;2023-04-25T01:37:37;100025.75;;;10.67;100.00
38303;BME280;24103;42.454;27.400;2023-04-25T01:40:03;100024.84;;;10.54;100.00
38303;BME280;24103;42.454;27.400;2023-04-25T01:42:31;100028.88;;;10.46;100.00
38303;BME280;24103;42.454;27.400;2023-04-25T01:44:57;100016.28;;;10.50;100.00
38303;BME280;24103;42.454;27.400;2023-04-25T01:47:23;100011.81;;;10.38;100.00
38303;BME280;24103;42.454;27.400;2023-04-25T01:49:48;100004.78;;;10.24;100.00
38303;BME280;24103;42.454;27.400;2023-04-25T01:52:14;100016.34;;;10.21;100.00
38303;BME280;24103;42.454;27.400;2023-04-25T01:54:40;100016.66;;;9.89;100.00
38303;BME280;24103;42.454;27.400;2023-04-25T01:57:09;100008.72;;;9.89;100.00
38303;BME280;24103;42.454;27.400;2023-04-25T01:59:35;100006.25;;;10.01;100.00
38303;BME280;24103;42.454;27.400;2023-04-25T02:02:00;99997.78;;;9.95;100.00
38303;BME280;24103;42.454;27.400;2023-04-25T02:04:29;99992.81;;;9.91;100.00
38303;BME280;24103;42.454;27.400;2023-04-25T02:06:54;99996.97;;;9.81;100.00
38303;BME280;24103;42.454;27.400;2023-04-25T02:09:20;99987.66;;;9.75;100.00
38303;BME280;24103;42.454;27.400;2023-04-25T02:11:45;99990.63;;;9.83;100.00
38303;BME280;24103;42.454;27.400;2023-04-25T02:14:11;99984.91;;;9.76;100.00
38303;BME280;24103;42.454;27.400;2023-04-25T02:16:36;99985.59;;;9.66;100.00
38303;BME280;24103;42.454;27.400;2023-04-25T02:19:02;99979.78;;;9.46;100.00
38303;BME280;24103;42.454;27.400;2023-04-25T02:21:27;99985.25;;;9.43;100.00
38303;BME280;24103;42.454;27.400;2023-04-25T02:23:53;99983.84;;;9.37;100.00
38303;BME280;24103;42.454;27.400;2023-04-25T02:26:19;99977.81;;;9.35;100.00
38303;BME280;24103;42.454;27.400;2023-04-25T02:28:44;99968.69;;;9.41;100.00
38303;BME280;24103;42.454;27.400;2023-04-25T02:31:10;99969.88;;;9.50;100.00
38303;BME280;24103;42.454;27.400;2023-04-25T02:33:35;99971.31;;;9.27;100.00
38303;BME280;24103;42.454;27.400;2023-04-25T02:36:01;99968.97;;;9.22;100.00
38303;BME280;24103;42.454;27.400;2023-04-25T02:38:26;99962.94;;;9.20;100.00
38303;BME280;24103;42.454;27.400;2023-04-25T02:40:52;99965.56;;;9.49;100.00
38303;BME280;24103;42.454;27.400;2023-04-25T02:43:17;99963.41;;;9.41;100.00
38303;BME280;24103;42.454;27.400;2023-04-25T02:45:42;99964.16;;;9.43;100.00
38303;BME280;24103;42.454;27.400;2023-04-25T02:48:08;99955.88;;;9.35;100.00
38303;BME280;24103;42.454;27.400;2023-04-25T02:50:33;99960.78;;;9.41;100.00
38303;BME280;24103;42.454;27.400;2023-04-25T02:52:59;99961.88;;;9.37;100.00
38303;BME280;24103;42.454;27.400;2023-04-25T02:55:25;99959.06;;;9.40;100.00
38303;BME280;24103;42.454;27.400;2023-04-25T02:57:51;99950.03;;;9.44;100.00
38303;BME280;24103;42.454;27.400;2023-04-25T03:00:16;99946.31;;;9.61;100.00
38303;BME280;24103;42.454;27.400;2023-04-25T03:02:42;99944.53;;;9.62;100.00
38303;BME280;24103;42.454;27.400;2023-04-25T03:05:07;99954.53;;;9.56;100.00
38303;BME280;24103;42.454;27.400;2023-04-25T03:07:33;99947.50;;;9.43;100.00
38303;BME280;24103;42.454;27.400;2023-04-25T03:09:58;99947.50;;;9.43;100.00
38303;BME280;24103;42.454;27.400;2023-04-25T03:12:24;99944.47;;;9.49;100.00
38303;BME280;24103;42.454;27.400;2023-04-25T03:14:49;99939.88;;;9.38;100.00
38303;BME280;24103;42.454;27.400;2023-04-25T03:17:15;99941.75;;;9.36;100.00
38303;BME280;24103;42.454;27.400;2023-04-25T03:19:41;99944.94;;;9.41;100.00
38303;BME280;24103;42.454;27.400;2023-04-25T03:22:06;99948.22;;;9.45;100.00
38303;BME280;24103;42.454;27.400;2023-04-25T03:24:31;99947.13;;;9.49;100.00
38303;BME280;24103;42.454;27.400;2023-04-25T03:26:57;99945.78;;;9.41;100.00
38303;BME280;24103;42.454;27.400;2023-04-25T03:29:23;99949.44;;;9.53;100.00
38303;BME280;24103;42.454;27.400;2023-04-25T03:31:50;99943.94;;;9.71;100.00
38303;BME280;24103;42.454;27.400;2023-04-25T03:34:16;99941.72;;;9.92;100.00
38303;BME280;24103;42.454;27.400;2023-04-25T03:36:41;99941.66;;;10.06;100.00
38303;BME280;24103;42.454;27.400;2023-04-25T03:39:07;99938.56;;;10.27;100.00
38303;BME280;24103;42.454;27.400;2023-04-25T03:41:32;99945.78;;;10.38;100.00
38303;BME280;24103;42.454;27.400;2023-04-25T03:43:58;99946.44;;;10.41;100.00
38303;BME280;24103;42.454;27.400;2023-04-25T03:46:23;99948.38;;;10.65;100.00
38303;BME280;24103;42.454;27.400;2023-04-25T03:48:48;99946.59;;;10.78;100.00
38303;BME280;24103;42.454;27.400;2023-04-25T03:51:14;99949.66;;;10.72;100.00
38303;BME280;24103;42.454;27.400;2023-04-25T03:53:39;99944.03;;;10.64;100.00
38303;BME280;24103;42.454;27.400;2023-04-25T03:56:05;99944.69;;;10.55;100.00
38303;BME280;24103;42.454;27.400;2023-04-25T03:58:31;99942.22;;;10.51;100.00
38303;BME280;24103;42.454;27.400;2023-04-25T04:00:56;99949.75;;;10.70;100.00
38303;BME280;24103;42.454;27.400;2023-04-25T04:03:22;99953.56;;;11.31;100.00
38303;BME280;24103;42.454;27.400;2023-04-25T04:05:47;99954.59;;;12.15;100.00
38303;BME280;24103;42.454;27.400;2023-04-25T04:08:13;99955.41;;;12.98;100.00
38303;BME280;24103;42.454;27.400;2023-04-25T04:10:38;99942.59;;;13.82;100.00
38303;BME280;24103;42.454;27.400;2023-04-25T04:13:04;99928.78;;;14.64;100.00
38303;BME280;24103;42.454;27.400;2023-04-25T04:15:29;99926.09;;;15.16;100.00
38303;BME280;24103;42.454;27.400;2023-04-25T04:17:58;99919.06;;;15.36;100.00
38303;BME280;24103;42.454;27.400;2023-04-25T04:20:27;99922.97;;;16.31;100.00
38303;BME280;24103;42.454;27.400;2023-04-25T04:22:53;99923.91;;;16.59;100.00
38303;BME280;24103;42.454;27.400;2023-04-25T04:25:18;99905.63;;;17.31;100.00
38303;BME280;24103;42.454;27.400;2023-04-25T04:27:44;99890.09;;;17.91;93.73
38303;BME280;24103;42.454;27.400;2023-04-25T04:30:11;99891.94;;;17.62;89.87
38303;BME280;24103;42.454;27.400;2023-04-25T04:32:37;99885.50;;;18.01;86.27
38303;BME280;24103;42.454;27.400;2023-04-25T04:35:03;99881.03;;;18.28;85.77
38303;BME280;24103;42.454;27.400;2023-04-25T04:37:29;99887.97;;;18.56;86.38
38303;BME280;24103;42.454;27.400;2023-04-25T04:39:55;99878.81;;;19.28;77.13
38303;BME280;24103;42.454;27.400;2023-04-25T04:42:21;99866.78;;;20.07;71.54
38303;BME280;24103;42.454;27.400;2023-04-25T04:44:46;99853.19;;;20.50;65.13
38303;BME280;24103;42.454;27.400;2023-04-25T04:47:12;99843.22;;;20.84;63.27
38303;BME280;24103;42.454;27.400;2023-04-25T04:49:39;99838.22;;;21.83;57.61
38303;BME280;24103;42.454;27.400;2023-04-25T04:52:05;99840.13;;;22.35;55.53
38303;BME280;24103;42.454;27.400;2023-04-25T04:54:31;99840.16;;;21.89;56.07
38303;BME280;24103;42.454;27.400;2023-04-25T04:56:56;99842.88;;;22.27;56.76
38303;BME280;24103;42.454;27.400;2023-04-25T04:59:22;99836.28;;;22.82;53.34
38303;BME280;24103;42.454;27.400;2023-04-25T05:01:47;99831.97;;;23.48;51.99
38303;BME280;24103;42.454;27.400;2023-04-25T05:04:12;99816.94;;;24.03;49.36
38303;BME280;24103;42.454;27.400;2023-04-25T05:06:38;99821.53;;;22.93;51.66
38303;BME280;24103;42.454;27.400;2023-04-25T05:09:04;99827.66;;;22.57;53.82
38303;BME280;24103;42.454;27.400;2023-04-25T05:11:29;99826.34;;;22.53;53.36
38303;BME280;24103;42.454;27.400;2023-04-25T05:13:55;99835.66;;;22.27;55.12
38303;BME280;24103;42.454;27.400;2023-04-25T05:16:21;99815.34;;;24.09;49.99
38303;BME280;24103;42.454;27.400;2023-04-25T05:18:47;99798.69;;;24.97;47.17
38303;BME280;24103;42.454;27.400;2023-04-25T05:21:13;99790.00;;;26.23;45.48
38303;BME280;24103;42.454;27.400;2023-04-25T05:23:38;99788.94;;;25.78;45.73
38303;BME280;24103;42.454;27.400;2023-04-25T05:32:51;99788.34;;;25.96;44.18
38303;BME280;24103;42.454;27.400;2023-04-25T05:35:17;99793.16;;;25.18;43.84
38303;BME280;24103;42.454;27.400;2023-04-25T05:37:42;99796.69;;;25.26;43.73
38303;BME280;24103;42.454;27.400;2023-04-25T05:40:08;99795.91;;;24.49;45.28
38303;BME280;24103;42.454;27.400;2023-04-25T05:42:34;99788.97;;;25.23;44.17
38303;BME280;24103;42.454;27.400;2023-04-25T05:45:00;99785.94;;;25.39;42.89
38303;BME280;24103;42.454;27.400;2023-04-25T05:47:26;99770.00;;;26.24;41.34
38303;BME280;24103;42.454;27.400;2023-04-25T05:49:52;99774.72;;;26.49;40.94
38303;BME280;24103;42.454;27.400;2023-04-25T05:52:18;99764.97;;;27.07;40.50
38303;BME280;24103;42.454;27.400;2023-04-25T05:54:43;99770.41;;;25.68;41.46
38303;BME280;24103;42.454;27.400;2023-04-25T05:57:08;99797.22;;;24.03;46.09
38303;BME280;24103;42.454;27.400;2023-04-25T05:59:43;99807.00;;;22.94;49.71
38303;BME280;24103;42.454;27.400;2023-04-25T06:02:08;99808.31;;;22.01;50.81
38303;BME280;24103;42.454;27.400;2023-04-25T06:04:34;99820.50;;;21.03;51.19
38303;BME280;24103;42.454;27.400;2023-04-25T06:06:59;99809.38;;;20.74;49.14
38303;BME280;24103;42.454;27.400;2023-04-25T06:09:25;99815.13;;;20.38;49.24
38303;BME280;24103;42.454;27.400;2023-04-25T06:11:51;99820.69;;;19.87;51.75
38303;BME280;24103;42.454;27.400;2023-04-25T06:14:17;99844.06;;;19.44;59.81
38303;BME280;24103;42.454;27.400;2023-04-25T06:16:42;99868.88;;;19.63;76.74
38303;BME280;24103;42.454;27.400;2023-04-25T06:19:08;99876.19;;;20.12;78.33
38303;BME280;24103;42.454;27.400;2023-04-25T06:21:33;99867.19;;;21.33;70.48
38303;BME280;24103;42.454;27.400;2023-04-25T06:23:58;99862.34;;;22.14;62.07
38303;BME280;24103;42.454;27.400;2023-04-25T06:26:24;99857.94;;;23.19;58.40
38303;BME280;24103;42.454;27.400;2023-04-25T06:28:49;99831.63;;;24.79;50.77
38303;BME280;24103;42.454;27.400;2023-04-25T06:31:15;99822.25;;;25.16;47.79
38303;BME280;24103;42.454;27.400;2023-04-25T06:33:40;99803.34;;;25.23;44.60
38303;BME280;24103;42.454;27.400;2023-04-25T06:36:06;99809.94;;;25.07;44.10
38303;BME280;24103;42.454;27.400;2023-04-25T06:38:32;99780.63;;;26.13;40.67
38303;BME280;24103;42.454;27.400;2023-04-25T06:40:57;99795.38;;;26.63;42.52
38303;BME280;24103;42.454;27.400;2023-04-25T06:43:23;99786.00;;;25.66;40.67
38303;BME280;24103;42.454;27.400;2023-04-25T06:45:48;99798.13;;;24.67;41.29
38303;BME280;24103;42.454;27.400;2023-04-25T06:48:14;99828.97;;;24.01;47.53
38303;BME280;24103;42.454;27.400;2023-04-25T06:50:39;99837.22;;;23.56;49.36
38303;BME280;24103;42.454;27.400;2023-04-25T06:53:05;99844.00;;;22.71;51.56
38303;BME280;24103;42.454;27.400;2023-04-25T06:55:30;99857.47;;;21.71;56.75
38303;BME280;24103;42.454;27.400;2023-04-25T06:57:56;99866.03;;;20.88;62.86
38303;BME280;24103;42.454;27.400;2023-04-25T07:00:21;99889.44;;;20.13;71.39
38303;BME280;24103;42.454;27.400;2023-04-25T07:02:47;99894.41;;;19.75;75.89
38303;BME280;24103;42.454;27.400;2023-04-25T07:05:12;99896.63;;;19.37;80.34
38303;BME280;24103;42.454;27.400;2023-04-25T07:07:38;99899.16;;;19.04;83.01
38303;BME280;24103;42.454;27.400;2023-04-25T07:10:03;99902.91;;;18.67;86.81
38303;BME280;24103;42.454;27.400;2023-04-25T07:12:29;99902.84;;;18.59;90.32
38303;BME280;24103;42.454;27.400;2023-04-25T07:14:55;99899.16;;;18.34;90.20
38303;BME280;24103;42.454;27.400;2023-04-25T07:17:20;99908.25;;;18.23;91.72
38303;BME280;24103;42.454;27.400;2023-04-25T07:19:46;99894.75;;;18.07;94.60
38303;BME280;24103;42.454;27.400;2023-04-25T07:22:12;99904.00;;;18.12;96.77
38303;BME280;24103;42.454;27.400;2023-04-25T07:24:39;99917.66;;;17.91;100.00
38303;BME280;24103;42.454;27.400;2023-04-25T07:27:04;99916.31;;;18.05;99.91
38303;BME280;24103;42.454;27.400;2023-04-25T07:29:30;99921.72;;;18.13;98.71
38303;BME280;24103;42.454;27.400;2023-04-25T07:31:56;99916.06;;;17.98;100.00
38303;BME280;24103;42.454;27.400;2023-04-25T07:34:21;99910.25;;;18.21;100.00
38303;BME280;24103;42.454;27.400;2023-04-25T07:36:46;99906.72;;;18.38;99.87
38303;BME280;24103;42.454;27.400;2023-04-25T07:39:12;99897.38;;;18.69;95.44
38303;BME280;24103;42.454;27.400;2023-04-25T07:41:39;99901.28;;;18.74;90.84
38303;BME280;24103;42.454;27.400;2023-04-25T07:44:04;99907.09;;;18.44;95.09
38303;BME280;24103;42.454;27.400;2023-04-25T07:46:30;99899.22;;;18.42;96.24
38303;BME280;24103;42.454;27.400;2023-04-25T07:48:56;99905.88;;;18.38;100.00
38303;BME280;24103;42.454;27.400;2023-04-25T07:51:21;99899.09;;;18.70;96.53
38303;BME280;24103;42.454;27.400;2023-04-25T07:53:47;99889.38;;;18.95;94.64
38303;BME280;24103;42.454;27.400;2023-04-25T07:56:13;99890.44;;;19.10;93.59
38303;BME280;24103;42.454;27.400;2023-04-25T07:58:38;99880.44;;;19.12;92.78
38303;BME280;24103;42.454;27.400;2023-04-25T08:01:04;99881.50;;;19.28;88.77
38303;BME280;24103;42.454;27.400;2023-04-25T08:03:29;99884.22;;;19.36;91.01
38303;BME280;24103;42.454;27.400;2023-04-25T08:05:55;99880.22;;;19.48;89.44
38303;BME280;24103;42.454;27.400;2023-04-25T08:08:20;99875.41;;;19.60;85.57
38303;BME280;24103;42.454;27.400;2023-04-25T08:10:46;99866.19;;;19.63;82.81
38303;BME280;24103;42.454;27.400;2023-04-25T08:13:13;99863.06;;;19.76;75.88
38303;BME280;24103;42.454;27.400;2023-04-25T08:15:38;99857.91;;;20.07;73.21
38303;BME280;24103;42.454;27.400;2023-04-25T08:18:04;99866.09;;;20.47;73.32
38303;BME280;24103;42.454;27.400;2023-04-25T08:20:30;99840.56;;;20.75;67.02
38303;BME280;24103;42.454;27.400;2023-04-25T08:22:56;99854.72;;;21.09;70.27
38303;BME280;24103;42.454;27.400;2023-04-25T08:25:21;99847.16;;;21.12;66.47
38303;BME280;24103;42.454;27.400;2023-04-25T08:27:47;99831.56;;;21.70;60.04
38303;BME280;24103;42.454;27.400;2023-04-25T08:30:12;99838.69;;;22.09;59.67
38303;BME280;24103;42.454;27.400;2023-04-25T08:32:38;99823.00;;;22.51;55.77
38303;BME280;24103;42.454;27.400;2023-04-25T08:35:04;99811.31;;;22.59;52.40
38303;BME280;24103;42.454;27.400;2023-04-25T08:37:30;99815.72;;;21.76;54.31
38303;BME280;24103;42.454;27.400;2023-04-25T08:39:56;99807.06;;;21.88;53.52
38303;BME280;24103;42.454;27.400;2023-04-25T08:42:21;99810.44;;;22.05;56.17
38303;BME280;24103;42.454;27.400;2023-04-25T08:44:48;99799.06;;;22.56;52.58
38303;BME280;24103;42.454;27.400;2023-04-25T08:47:14;99799.03;;;22.41;52.01
38303;BME280;24103;42.454;27.400;2023-04-25T08:49:45;99791.22;;;22.32;51.80
38303;BME280;24103;42.454;27.400;2023-04-25T08:52:13;99793.94;;;22.32;52.12
38303;BME280;24103;42.454;27.400;2023-04-25T08:54:42;99789.00;;;21.97;52.10
38303;BME280;24103;42.454;27.400;2023-04-25T08:57:10;99794.56;;;21.96;54.92
38303;BME280;24103;42.454;27.400;2023-04-25T08:59:36;99788.13;;;22.20;52.80
38303;BME280;24103;42.454;27.400;2023-04-25T09:02:05;99787.72;;;22.31;52.33
38303;BME280;24103;42.454;27.400;2023-04-25T09:04:31;99777.22;;;21.98;52.31
38303;BME280;24103;42.454;27.400;2023-04-25T09:06:56;99780.97;;;22.12;53.84
38303;BME280;24103;42.454;27.400;2023-04-25T09:09:24;99773.91;;;21.96;53.17
38303;BME280;24103;42.454;27.400;2023-04-25T09:11:49;99777.03;;;21.85;53.71
38303;BME280;24103;42.454;27.400;2023-04-25T09:14:17;99781.25;;;21.56;55.19
38303;BME280;24103;42.454;27.400;2023-04-25T09:17:12;99777.56;;;21.57;58.40
38303;BME280;24103;42.454;27.400;2023-04-25T09:19:39;99774.63;;;21.67;58.68
38303;BME280;24103;42.454;27.400;2023-04-25T09:22:06;99772.81;;;21.82;59.39
38303;BME280;24103;42.454;27.400;2023-04-25T09:24:42;99770.22;;;21.51;59.52
38303;BME280;24103;42.454;27.400;2023-04-25T09:27:10;99766.53;;;21.52;61.53
38303;BME280;24103;42.454;27.400;2023-04-25T09:29:38;99783.91;;;21.02;63.84
38303;BME280;24103;42.454;27.400;2023-04-25T09:32:12;99777.47;;;20.79;66.12
38303;BME280;24103;42.454;27.400;2023-04-25T09:34:47;99770.94;;;20.74;64.60
38303;BME280;24103;42.454;27.400;2023-04-25T09:37:28;99765.78;;;20.64;65.60
38303;BME280;24103;42.454;27.400;2023-04-25T09:39:58;99770.03;;;20.90;64.92
38303;BME280;24103;42.454;27.400;2023-04-25T09:42:26;99774.44;;;20.83;66.30
38303;BME280;24103;42.454;27.400;2023-04-25T09:44:56;99769.75;;;20.76;67.33
38303;BME280;24103;42.454;27.400;2023-04-25T09:47:23;99764.88;;;20.80;65.10
38303;BME280;24103;42.454;27.400;2023-04-25T09:49:50;99762.22;;;20.72;67.89
38303;BME280;24103;42.454;27.400;2023-04-25T09:52:20;99761.69;;;20.85;68.92
38303;BME280;24103;42.454;27.400;2023-04-25T09:54:47;99745.59;;;20.76;64.68
38303;BME280;24103;42.454;27.400;2023-04-25T09:57:15;99746.28;;;20.62;66.33
38303;BME280;24103;42.454;27.400;2023-04-25T09:59:49;99750.94;;;20.85;67.14
38303;BME280;24103;42.454;27.400;2023-04-25T10:02:19;99735.88;;;20.75;66.07
38303;BME280;24103;42.454;27.400;2023-04-25T10:04:50;99740.47;;;20.50;67.40
38303;BME280;24103;42.454;27.400;2023-04-25T10:07:18;99734.25;;;20.58;72.54
38303;BME280;24103;42.454;27.400;2023-04-25T10:09:48;99733.66;;;20.39;68.40
38303;BME280;24103;42.454;27.400;2023-04-25T10:12:16;99738.72;;;20.26;73.05
38303;BME280;24103;42.454;27.400;2023-04-25T10:14:42;99727.63;;;20.29;69.31
38303;BME280;24103;42.454;27.400;2023-04-25T10:17:10;99729.88;;;19.93;72.35
38303;BME280;24103;42.454;27.400;2023-04-25T10:19:36;99724.19;;;19.96;69.41
38303;BME280;24103;42.454;27.400;2023-04-25T10:22:14;99732.88;;;19.24;71.19
38303;BME280;24103;42.454;27.400;2023-04-25T10:24:42;99734.88;;;18.79;73.14
38303;BME280;24103;42.454;27.400;2023-04-25T10:27:09;99737.09;;;18.84;76.69
38303;BME280;24103;42.454;27.400;2023-04-25T10:29:34;99734.19;;;19.28;74.19
38303;BME280;24103;42.454;27.400;2023-04-25T10:32:00;99742.13;;;18.87;72.27
38303;BME280;24103;42.454;27.400;2023-04-25T10:34:43;99743.34;;;18.92;77.14
38303;BME280;24103;42.454;27.400;2023-04-25T10:37:12;99734.66;;;19.07;73.47
38303;BME280;24103;42.454;27.400;2023-04-25T10:39:39;99726.59;;;18.99;71.10
38303;BME280;24103;42.454;27.400;2023-04-25T10:42:06;99738.50;;;18.96;71.76
38303;BME280;24103;42.454;27.400;2023-04-25T10:44:33;99744.34;;;18.65;75.25
38303;BME280;24103;42.454;27.400;2023-04-25T10:47:01;99733.41;;;18.16;71.86
38303;BME280;24103;42.454;27.400;2023-04-25T10:49:30;99746.78;;;18.16;77.11
38303;BME280;24103;42.454;27.400;2023-04-25T10:52:12;99738.06;;;17.34;73.50
38303;BME280;24103;42.454;27.400;2023-04-25T10:54:48;99736.25;;;17.34;73.44
38303;BME280;24103;42.454;27.400;2023-04-25T11:00:16;99724.50;;;17.45;75.82
38303;BME280;24103;42.454;27.400;2023-04-25T11:02:52;99724.94;;;17.58;75.54
38303;BME280;24103;42.454;27.400;2023-04-25T11:05:35;99731.81;;;17.61;73.63
38303;BME280;24103;42.454;27.400;2023-04-25T11:08:01;99714.94;;;17.60;72.13
38303;BME280;24103;42.454;27.400;2023-04-25T11:10:30;99719.88;;;17.73;67.58
38303;BME280;24103;42.454;27.400;2023-04-25T11:12:57;99703.19;;;17.53;64.41
38303;BME280;24103;42.454;27.400;2023-04-25T11:15:24;99709.78;;;17.59;64.93
38303;BME280;24103;42.454;27.400;2023-04-25T11:17:53;99717.16;;;18.09;62.95
38303;BME280;24103;42.454;27.400;2023-04-25T11:20:20;99715.38;;;18.18;62.64
38303;BME280;24103;42.454;27.400;2023-04-25T11:22:46;99718.28;;;18.33;62.10
38303;BME280;24103;42.454;27.400;2023-04-25T11:25:13;99731.34;;;18.70;62.36
38303;BME280;24103;42.454;27.400;2023-04-25T11:27:52;99718.72;;;18.89;63.51
38303;BME280;24103;42.454;27.400;2023-04-25T11:30:19;99705.16;;;18.48;61.40
38303;BME280;24103;42.454;27.400;2023-04-25T11:32:45;99702.28;;;18.41;65.19
38303;BME280;24103;42.454;27.400;2023-04-25T11:35:12;99695.66;;;19.04;63.15
38303;BME280;24103;42.454;27.400;2023-04-25T11:37:41;99684.66;;;19.32;64.14
38303;BME280;24103;42.454;27.400;2023-04-25T11:40:08;99676.59;;;19.07;61.37
38303;BME280;24103;42.454;27.400;2023-04-25T11:42:36;99673.22;;;18.46;63.71
38303;BME280;24103;42.454;27.400;2023-04-25T11:45:03;99662.88;;;18.51;65.05
38303;BME280;24103;42.454;27.400;2023-04-25T11:47:30;99667.84;;;18.89;64.52
38303;BME280;24103;42.454;27.400;2023-04-25T11:49:58;99672.41;;;19.05;60.55
38303;BME280;24103;42.454;27.400;2023-04-25T11:52:35;99676.56;;;18.91;62.73
38303;BME280;24103;42.454;27.400;2023-04-25T11:55:00;99713.66;;;18.09;86.95
38303;BME280;24103;42.454;27.400;2023-04-25T11:57:26;99729.00;;;17.26;96.38
38303;BME280;24103;42.454;27.400;2023-04-25T11:59:51;99745.03;;;16.71;100.00
38303;BME280;24103;42.454;27.400;2023-04-25T12:02:25;99760.22;;;16.33;100.00
38303;BME280;24103;42.454;27.400;2023-04-25T12:04:51;99763.06;;;16.59;100.00
38303;BME280;24103;42.454;27.400;2023-04-25T12:07:17;99756.47;;;16.26;100.00
38303;BME280;24103;42.454;27.400;2023-04-25T12:09:51;99755.53;;;15.68;100.00
38303;BME280;24103;42.454;27.400;2023-04-25T12:12:17;99751.31;;;15.75;100.00
38303;BME280;24103;42.454;27.400;2023-04-25T12:14:46;99740.69;;;15.95;100.00
38303;BME280;24103;42.454;27.400;2023-04-25T12:17:13;99740.47;;;16.26;100.00
38303;BME280;24103;42.454;27.400;2023-04-25T12:19:39;99736.94;;;16.63;100.00
38303;BME280;24103;42.454;27.400;2023-04-25T12:22:23;99720.06;;;17.00;100.00
38303;BME280;24103;42.454;27.400;2023-04-25T12:24:50;99707.34;;;17.11;100.00
38303;BME280;24103;42.454;27.400;2023-04-25T12:27:16;99702.22;;;17.18;100.00
38303;BME280;24103;42.454;27.400;2023-04-25T12:29:51;99685.75;;;17.05;100.00
38303;BME280;24103;42.454;27.400;2023-04-25T12:36:10;99686.66;;;17.13;100.00
38303;BME280;24103;42.454;27.400;2023-04-25T12:38:38;99692.91;;;17.40;100.00
38303;BME280;24103;42.454;27.400;2023-04-25T12:41:04;99693.03;;;17.57;100.00
38303;BME280;24103;42.454;27.400;2023-04-25T12:43:29;99678.41;;;17.61;100.00
38303;BME280;24103;42.454;27.400;2023-04-25T12:45:56;99669.53;;;17.60;100.00
38303;BME280;24103;42.454;27.400;2023-04-25T12:48:22;99671.13;;;17.71;100.00
38303;BME280;24103;42.454;27.400;2023-04-25T12:50:49;99684.34;;;17.99;100.00
38303;BME280;24103;42.454;27.400;2023-04-25T12:53:19;99682.06;;;18.04;100.00
38303;BME280;24103;42.454;27.400;2023-04-25T12:55:46;99670.56;;;18.12;100.00
38303;BME280;24103;42.454;27.400;2023-04-25T12:58:15;99664.88;;;18.07;100.00